Time;durP1;ratioP1;P1;durP2;ratioP2;P2;SDS_P1;SDS_P2;PMS_P1;PMS_P2;Temp;Humidity;BMP_temperature;BMP_pressure;BME280_temperature;BME280_humidity;BME280_pressure;Samples;Min_cycle;Max_cycle;Signal;HPM_P1;HPM_P2
2022/12/08 19:01:40;;;;;;;34.03;20.83;;;;;;;0.79;72.59;98648.34;6195366;22;1942073;-83
2022/12/08 19:04:35;;;;;;;38.00;21.47;;;;;;;0.82;72.63;98649.97;6282137;22;20152;-81
2022/12/08 19:07:01;;;;;;;35.15;20.40;;;;;;;0.84;72.70;98648.16;6275845;22;20166;-81
2022/12/08 19:09:27;;;;;;;36.13;20.57;;;;;;;0.84;72.58;98651.59;6252792;22;20225;-81
2022/12/08 19:11:54;;;;;;;39.88;24.80;;;;;;;0.82;72.30;98647.38;6244238;23;20773;-82
2022/12/08 19:14:21;;;;;;;40.65;27.10;;;;;;;0.80;72.71;98647.44;6242271;23;20610;-82
2022/12/08 19:16:47;;;;;;;48.67;27.65;;;;;;;0.80;72.73;98652.59;6241781;23;20185;-83
2022/12/08 19:19:12;;;;;;;50.90;27.87;;;;;;;0.82;72.76;98647.38;6239564;22;20180;-81
2022/12/08 19:21:38;;;;;;;53.93;26.60;;;;;;;0.83;72.69;98644.72;6238331;23;20559;-82
2022/12/08 19:24:04;;;;;;;46.13;26.50;;;;;;;0.83;72.80;98639.53;6209718;23;20688;-82
2022/12/08 19:26:29;;;;;;;37.27;25.50;;;;;;;0.84;72.49;98643.84;6239449;23;20604;-81
2022/12/08 19:28:55;;;;;;;35.13;24.60;;;;;;;0.84;72.45;98643.84;6235835;22;20436;-82
2022/12/08 19:31:20;;;;;;;43.03;24.73;;;;;;;0.86;72.79;98636.00;6239037;23;20213;-82
2022/12/08 19:33:46;;;;;;;38.33;25.15;;;;;;;0.83;72.51;98636.13;6236029;23;20857;-83
2022/12/08 19:36:15;;;;;;;28.13;19.33;;;;;;;0.70;72.43;98632.34;6209964;23;20473;-83
2022/12/08 19:47:01;;;;;;;28.33;17.75;;;;;;;-0.09;73.46;98631.84;6230431;23;20283;-81
2022/12/08 19:49:26;;;;;;;29.30;15.43;;;;;;;-0.21;73.74;98634.91;6232998;22;20273;-80
2022/12/08 19:51:52;;;;;;;26.10;17.52;;;;;;;-0.33;74.07;98631.81;6205313;23;20209;-81
2022/12/08 19:54:18;;;;;;;28.93;15.37;;;;;;;-0.38;74.34;98638.88;6234395;23;20610;-82
2022/12/08 19:56:44;;;;;;;26.97;15.20;;;;;;;-0.46;74.54;98626.28;6232767;23;20183;-82
2022/12/08 19:59:09;;;;;;;21.23;14.00;;;;;;;-0.51;74.18;98628.16;6232826;22;20481;-81
2022/12/08 20:01:37;;;;;;;28.97;17.90;;;;;;;-0.49;74.62;98628.09;6236186;23;20189;-80
2022/12/08 20:04:03;;;;;;;28.52;17.33;;;;;;;-0.46;74.52;98626.28;6239695;23;20168;-81
2022/12/08 20:06:28;;;;;;;33.28;16.48;;;;;;;-0.43;74.38;98629.63;6238921;23;20153;-81
2022/12/08 20:08:54;;;;;;;29.97;17.47;;;;;;;-0.41;74.13;98627.84;6234678;22;20213;-83
2022/12/08 20:11:20;;;;;;;22.57;14.97;;;;;;;-0.41;74.38;98618.34;6233677;23;20672;-81
2022/12/08 20:13:48;;;;;;;28.25;16.42;;;;;;;-0.43;74.16;98619.31;6234418;23;20161;-83
2022/12/08 20:16:15;;;;;;;24.73;14.70;;;;;;;-0.48;74.16;98633.22;6233376;23;20776;-82
2022/12/08 20:18:41;;;;;;;34.10;14.73;;;;;;;-0.51;74.25;98628.16;6234657;22;20702;-83
2022/12/08 20:21:07;;;;;;;23.23;14.47;;;;;;;-0.55;74.24;98631.72;6235610;23;20188;-83
2022/12/08 20:23:35;;;;;;;26.73;15.23;;;;;;;-0.59;74.40;98635.31;6238407;23;20388;-81
2022/12/08 20:26:05;;;;;;;37.38;19.92;;;;;;;-0.59;74.38;98634.50;6237059;23;20157;-82
2022/12/08 20:28:33;;;;;;;39.22;20.17;;;;;;;-0.61;74.34;98629.38;6237719;22;20181;-81
2022/12/08 20:31:02;;;;;;;36.97;18.27;;;;;;;-0.62;74.47;98634.56;6238875;23;20349;-81
2022/12/08 20:33:27;;;;;;;26.83;16.65;;;;;;;-0.63;74.13;98638.88;6238641;23;20244;-82
2022/12/08 20:36:00;;;;;;;33.53;16.80;;;;;;;-0.66;74.40;98636.41;6238661;23;20181;-82
2022/12/08 20:38:27;;;;;;;30.30;16.50;;;;;;;-0.69;74.58;98633.94;6240051;22;20180;-82
2022/12/08 20:40:53;;;;;;;32.20;15.82;;;;;;;-0.72;74.29;98632.31;6240733;23;20157;-83
2022/12/08 20:43:18;;;;;;;22.88;13.77;;;;;;;-0.73;74.45;98635.78;6242337;23;20152;-82
2022/12/08 20:45:44;;;;;;;29.03;18.97;;;;;;;-0.73;74.46;98635.78;6240534;23;20505;-82
2022/12/08 20:48:09;;;;;;;39.97;18.67;;;;;;;-0.70;74.56;98633.09;6239884;22;20177;-82
2022/12/08 20:50:35;;;;;;;41.20;16.17;;;;;;;-0.70;74.49;98634.84;6238437;23;20677;-82
2022/12/08 20:53:01;;;;;;;33.10;17.40;;;;;;;-0.75;74.53;98629.84;6241770;23;20165;-82
2022/12/08 20:55:26;;;;;;;30.33;16.40;;;;;;;-0.79;74.55;98643.72;6242283;23;20160;-82
2022/12/08 20:57:51;;;;;;;24.70;13.80;;;;;;;-0.84;74.33;98640.44;6243394;22;20854;-82
2022/12/08 21:00:19;;;;;;;36.57;16.07;;;;;;;-0.89;74.66;98632.03;6244803;23;20154;-81
2022/12/08 21:02:45;;;;;;;24.50;15.75;;;;;;;-0.90;74.89;98635.50;6247057;23;20272;-83
2022/12/08 21:05:11;;;;;;;23.83;14.03;;;;;;;-0.88;74.72;98620.00;6246497;23;20169;-82
2022/12/08 21:07:39;;;;;;;17.98;13.77;;;;;;;-0.91;74.53;98624.34;6245947;22;20180;-82
2022/12/08 21:10:05;;;;;;;18.20;13.80;;;;;;;-0.99;74.25;98628.91;6246044;23;20177;-82
2022/12/08 21:12:34;;;;;;;22.85;13.75;;;;;;;-1.06;74.58;98631.72;6244169;23;20180;-83
2022/12/08 21:14:59;;;;;;;24.23;15.45;;;;;;;-1.12;74.82;98622.47;6245155;23;20160;-82
2022/12/08 21:17:24;;;;;;;20.60;12.60;;;;;;;-1.14;74.89;98631.97;6244642;23;20498;-82
2022/12/08 21:19:50;;;;;;;19.57;13.33;;;;;;;-1.15;74.99;98625.97;6246914;22;20193;-83
2022/12/08 21:22:15;;;;;;;25.10;14.40;;;;;;;-1.13;74.97;98633.69;6247190;23;20228;-82
2022/12/08 21:24:41;;;;;;;22.63;13.10;;;;;;;-1.14;74.80;98627.66;6246634;23;20153;-82
2022/12/08 21:27:07;;;;;;;33.77;17.50;;;;;;;-1.15;74.85;98625.16;6247118;23;20153;-81
2022/12/08 21:29:33;;;;;;;38.40;17.20;;;;;;;-1.18;75.00;98627.81;6247661;22;20429;-82
2022/12/08 21:31:59;;;;;;;24.33;16.03;;;;;;;-1.18;74.82;98625.25;6245977;23;20161;-81
2022/12/08 21:34:30;;;;;;;22.23;13.68;;;;;;;-1.20;75.07;98621.88;6244917;23;20171;-81
2022/12/08 21:36:56;;;;;;;25.55;13.25;;;;;;;-1.20;74.66;98619.28;6246454;23;20151;-82
2022/12/08 21:39:22;;;;;;;24.30;15.15;;;;;;;-1.21;75.15;98615.88;6244457;22;20210;-82
2022/12/08 21:44:34;;;;;;;24.42;14.57;;;;;;;-1.16;75.02;98606.28;6243674;23;20171;-82
2022/12/08 21:46:59;;;;;;;24.17;16.50;;;;;;;-1.09;74.59;98613.78;6186845;23;20234;-81
2022/12/08 21:49:25;;;;;;;24.73;15.33;;;;;;;-1.04;74.93;98607.59;6180023;23;20193;-81
2022/12/08 21:51:50;;;;;;;30.00;15.87;;;;;;;-0.98;74.92;98597.06;6133652;23;20261;-81
2022/12/08 21:54:16;;;;;;;24.63;14.20;;;;;;;-0.91;74.22;98600.31;6155736;23;20163;-81
2022/12/08 21:56:43;;;;;;;31.07;16.27;;;;;;;-0.93;74.47;98595.19;6155153;23;20150;-81
2022/12/08 21:59:09;;;;;;;22.17;13.77;;;;;;;-0.96;74.31;98594.47;6154742;23;20304;-81
2022/12/08 22:01:43;;;;;;;31.48;17.70;;;;;;;-1.01;74.70;98597.19;6156451;23;20393;-82
2022/12/08 22:04:11;;;;;;;33.47;20.77;;;;;;;-1.05;74.60;98592.16;6159866;23;20397;-82
2022/12/08 22:06:37;;;;;;;30.98;18.60;;;;;;;-1.13;74.87;98589.88;6158005;23;20156;-82
2022/12/08 22:09:03;;;;;;;23.38;15.40;;;;;;;-1.18;74.98;98589.19;6156703;23;20821;-82
2022/12/08 22:11:28;;;;;;;26.85;15.75;;;;;;;-1.24;74.93;98587.63;6157814;23;20159;-82
2022/12/08 22:13:54;;;;;;;23.90;14.77;;;;;;;-1.26;74.89;98586.00;6157676;23;20163;-82
2022/12/08 22:16:19;;;;;;;29.60;17.27;;;;;;;-1.33;75.20;98580.19;6158361;23;20170;-82
2022/12/08 22:18:45;;;;;;;24.97;16.10;;;;;;;-1.36;75.00;98591.44;6157571;23;20179;-83
2022/12/08 22:21:13;;;;;;;23.00;15.33;;;;;;;-1.37;75.32;98599.22;6156082;23;20190;-82
2022/12/08 22:23:38;;;;;;;25.13;13.95;;;;;;;-1.37;75.16;98594.91;6157743;23;20554;-83
2022/12/08 22:26:05;;;;;;;24.97;14.20;;;;;;;-1.35;75.20;98594.84;6156832;23;20163;-82
2022/12/08 22:28:33;;;;;;;26.40;12.63;;;;;;;-1.35;75.03;98582.84;6156703;23;20226;-82
2022/12/08 22:30:59;;;;;;;26.35;15.13;;;;;;;-1.35;75.00;98592.25;6157647;23;20187;-82
2022/12/08 22:33:24;;;;;;;23.93;15.40;;;;;;;-1.37;75.30;98578.63;6154529;23;20151;-82
2022/12/08 22:35:56;;;;;;;18.43;14.00;;;;;;;-1.35;74.73;98587.97;6157008;23;20654;-82
2022/12/08 22:38:22;;;;;;;20.80;13.05;;;;;;;-1.33;74.98;98583.59;6128330;23;20194;-82
2022/12/08 22:40:48;;;;;;;26.23;13.93;;;;;;;-1.31;75.00;98585.31;6155233;23;20232;-82
2022/12/08 22:43:13;;;;;;;29.17;17.80;;;;;;;-1.31;74.35;98596.44;6158121;23;20164;-82
2022/12/08 22:45:39;;;;;;;30.77;17.87;;;;;;;-1.32;74.53;98579.31;6156888;23;20163;-83
2022/12/08 22:48:04;;;;;;;28.13;16.77;;;;;;;-1.31;74.81;98578.41;6154497;23;20226;-82
2022/12/08 22:50:30;;;;;;;23.87;16.07;;;;;;;-1.29;74.58;98566.34;6156939;23;20670;-82
2022/12/08 22:52:55;;;;;;;23.30;16.10;;;;;;;-1.25;74.68;98564.50;6156415;23;20224;-82
2022/12/08 22:55:20;;;;;;;20.70;14.20;;;;;;;-1.21;74.26;98568.66;6160816;23;20233;-82
2022/12/08 22:57:46;;;;;;;25.57;15.47;;;;;;;-1.22;74.41;98572.94;6155819;23;20157;-82
2022/12/08 23:00:12;;;;;;;35.43;17.20;;;;;;;-1.23;74.64;98562.72;6155941;23;20167;-82
2022/12/08 23:02:37;;;;;;;42.07;16.20;;;;;;;-1.26;74.64;98548.19;6155571;23;20192;-82
2022/12/08 23:05:03;;;;;;;38.17;21.33;;;;;;;-1.30;74.33;98551.75;6156726;23;20391;-82
2022/12/08 23:07:29;;;;;;;29.48;15.88;;;;;;;-1.34;74.90;98537.31;6154331;23;20416;-83
2022/12/08 23:09:54;;;;;;;23.00;15.33;;;;;;;-1.36;75.08;98539.91;6152279;23;20240;-83
2022/12/08 23:12:20;;;;;;;21.33;15.67;;;;;;;-1.34;75.04;98532.16;6154063;23;20157;-83
2022/12/08 23:14:45;;;;;;;26.00;16.00;;;;;;;-1.34;75.03;98534.72;6127881;23;20658;-82
2022/12/08 23:17:11;;;;;;;25.33;12.40;;;;;;;-1.35;74.79;98530.44;6170958;23;20176;-82
2022/12/08 23:19:37;;;;;;;29.70;13.03;;;;;;;-1.40;74.65;98542.66;6166015;23;20175;-82
2022/12/08 23:22:03;;;;;;;24.27;14.15;;;;;;;-1.49;75.00;98548.09;6166630;23;20488;-83
2022/12/08 23:24:28;;;;;;;30.97;14.67;;;;;;;-1.60;75.01;98536.38;6157950;23;20169;-82
2022/12/08 23:26:54;;;;;;;32.17;12.87;;;;;;;-1.69;75.33;98541.00;6157809;23;20611;-82
2022/12/08 23:29:19;;;;;;;17.53;11.17;;;;;;;-1.77;75.29;98536.09;6157958;23;20198;-82
2022/12/08 23:31:45;;;;;;;33.87;12.47;;;;;;;-1.81;75.77;98544.78;6156357;23;20166;-82
2022/12/08 23:34:10;;;;;;;19.67;12.03;;;;;;;-1.84;75.63;98548.28;6162361;23;20155;-82
2022/12/08 23:36:36;;;;;;;21.10;14.07;;;;;;;-1.80;75.68;98538.75;6168174;23;20163;-82
2022/12/08 23:39:02;;;;;;;26.25;15.98;;;;;;;-1.75;76.08;98536.88;6169940;23;20175;-82
2022/12/08 23:41:28;;;;;;;25.20;15.13;;;;;;;-1.70;75.74;98524.72;6166202;23;20177;-82
2022/12/08 23:43:53;;;;;;;26.73;16.83;;;;;;;-1.63;75.99;98523.63;6153892;23;20489;-82
2022/12/08 23:46:20;;;;;;;22.23;14.10;;;;;;;-1.58;75.67;98529.47;6153084;23;20174;-83
2022/12/08 23:48:46;;;;;;;24.23;15.75;;;;;;;-1.59;75.34;98526.94;6154457;23;20187;-82
2022/12/08 23:51:11;;;;;;;26.20;15.57;;;;;;;-1.63;75.34;98527.94;6156315;23;20181;-82
2022/12/08 23:53:37;;;;;;;23.17;14.50;;;;;;;-1.66;75.62;98521.13;6156840;23;20164;-83
2022/12/08 23:56:06;;;;;;;23.97;15.97;;;;;;;-1.63;75.58;98517.63;6158698;23;20526;-82
2022/12/08 23:58:32;;;;;;;39.88;18.95;;;;;;;-1.58;75.74;98513.19;6157547;23;20214;-82
